createdAt,value
2017-07-04T00:00:20.236Z,942.99
2017-07-04T00:00:48.363Z,942.94
2017-07-04T00:01:16.505Z,942.97
2017-07-04T00:01:44.617Z,942.97
2017-07-04T00:02:12.652Z,942.97
2017-07-04T00:02:40.582Z,942.97
2017-07-04T00:03:08.934Z,942.96
2017-07-04T00:03:37.097Z,943.01
2017-07-04T00:04:05.065Z,943.01
2017-07-04T00:04:33.288Z,943.01
2017-07-04T00:05:01.245Z,942.98
2017-07-04T00:05:29.367Z,943.02
2017-07-04T00:05:57.586Z,943.07
2017-07-04T00:06:25.588Z,943.08
2017-07-04T00:06:53.788Z,943
2017-07-04T00:07:21.831Z,943.05
2017-07-04T00:07:50.087Z,943.04
2017-07-04T00:08:18.252Z,943.03
2017-07-04T00:08:46.307Z,943.03
2017-07-04T00:09:14.511Z,943.02
2017-07-04T00:09:42.515Z,943.03
2017-07-04T00:10:10.663Z,943.06
2017-07-04T00:10:38.751Z,943.07
2017-07-04T00:11:06.996Z,943.03
2017-07-04T00:11:35.111Z,943.07
2017-07-04T00:12:03.230Z,943.11
2017-07-04T00:12:31.419Z,943.07
2017-07-04T00:12:59.758Z,943.02
2017-07-04T00:13:28.022Z,943.02
2017-07-04T00:13:56.089Z,943.04
2017-07-04T00:14:24.305Z,942.99
2017-07-04T00:14:52.346Z,943
2017-07-04T00:15:20.578Z,942.94
2017-07-04T00:15:48.699Z,943.01
2017-07-04T00:16:16.734Z,942.97
2017-07-04T00:16:44.857Z,942.94
2017-07-04T00:17:12.779Z,942.95
2017-07-04T00:17:40.893Z,942.97
2017-07-04T00:18:09.222Z,942.95
2017-07-04T00:18:37.445Z,942.97
2017-07-04T00:19:05.669Z,942.96
2017-07-04T00:19:33.688Z,942.96
2017-07-04T00:20:01.884Z,942.98
2017-07-04T00:20:29.994Z,942.99
2017-07-04T00:20:58.198Z,942.91
2017-07-04T00:21:26.420Z,942.97
2017-07-04T00:21:54.617Z,942.94
2017-07-04T00:22:22.784Z,942.94
2017-07-04T00:22:50.892Z,942.95
2017-07-04T00:23:19.147Z,942.96
2017-07-04T00:23:47.263Z,942.93
2017-07-04T00:24:15.299Z,942.9
2017-07-04T00:24:43.545Z,942.97
2017-07-04T00:25:11.649Z,942.98
2017-07-04T00:25:39.657Z,942.99
2017-07-04T00:26:07.730Z,942.96
2017-07-04T00:26:35.787Z,942.97
2017-07-04T00:27:03.778Z,942.97
2017-07-04T00:27:32.051Z,943.04
2017-07-04T00:28:00.192Z,943.01
2017-07-04T00:28:28.532Z,942.97
2017-07-04T00:28:56.557Z,942.89
2017-07-04T00:29:24.840Z,943.01
2017-07-04T00:29:52.860Z,942.96
2017-07-04T00:30:20.989Z,942.92
2017-07-04T00:30:49.218Z,942.95
2017-07-04T00:31:17.484Z,942.95
2017-07-04T00:31:45.623Z,942.99
2017-07-04T00:32:13.830Z,942.94
2017-07-04T00:32:42.097Z,943.01
2017-07-04T00:33:10.326Z,942.93
2017-07-04T00:33:38.470Z,942.95
2017-07-04T00:34:06.726Z,942.91
2017-07-04T00:34:34.936Z,942.94
2017-07-04T00:35:03.157Z,942.96
2017-07-04T00:35:31.258Z,942.94
2017-07-04T00:35:59.491Z,942.94
2017-07-04T00:36:27.747Z,942.9
2017-07-04T00:36:55.983Z,942.99
2017-07-04T00:37:24.108Z,942.94
2017-07-04T00:37:52.057Z,942.96
2017-07-04T00:38:20.257Z,942.9
2017-07-04T00:38:48.393Z,942.93
2017-07-04T00:39:16.422Z,942.91
2017-07-04T00:39:44.457Z,942.88
2017-07-04T00:40:12.646Z,942.9
2017-07-04T00:40:40.619Z,942.92
2017-07-04T00:41:08.779Z,942.89
2017-07-04T00:41:37.007Z,942.92
2017-07-04T00:42:05.139Z,942.9
2017-07-04T00:42:33.283Z,942.96
2017-07-04T00:43:01.384Z,942.92
2017-07-04T00:43:29.599Z,942.92
2017-07-04T00:43:57.726Z,943.01
2017-07-04T00:44:25.974Z,942.95
2017-07-04T00:44:54.215Z,942.93
2017-07-04T00:45:22.252Z,942.92
2017-07-04T00:45:50.417Z,942.9
2017-07-04T00:46:18.414Z,942.92
2017-07-04T00:46:46.674Z,942.96
2017-07-04T00:47:14.884Z,942.97
2017-07-04T00:47:43.016Z,942.96
2017-07-04T00:48:11.058Z,943.06
2017-07-04T00:48:39.363Z,942.95
2017-07-04T00:49:07.465Z,942.95
2017-07-04T00:49:35.405Z,942.95
2017-07-04T00:50:03.529Z,942.94
2017-07-04T00:50:31.744Z,942.99
2017-07-04T00:50:59.887Z,942.92
2017-07-04T00:51:27.978Z,942.92
2017-07-04T00:51:56.147Z,942.89
2017-07-04T00:52:24.338Z,942.9
2017-07-04T00:52:52.427Z,942.92
2017-07-04T00:53:20.565Z,942.88
2017-07-04T00:53:48.870Z,942.94
2017-07-04T00:54:16.997Z,942.91
2017-07-04T00:54:45.228Z,942.89
2017-07-04T00:55:13.329Z,942.91
2017-07-04T00:55:41.550Z,942.87
2017-07-04T00:56:09.664Z,942.89
2017-07-04T00:56:37.671Z,942.95
2017-07-04T00:57:05.696Z,942.92
2017-07-04T00:57:33.975Z,942.9
2017-07-04T00:58:01.984Z,942.91
2017-07-04T00:58:30.321Z,942.95
2017-07-04T00:58:58.329Z,942.91
2017-07-04T00:59:26.331Z,942.92
2017-07-04T00:59:54.555Z,942.89
2017-07-04T01:00:22.689Z,942.88
2017-07-04T01:00:50.829Z,942.87
2017-07-04T01:01:19.037Z,942.85
2017-07-04T01:01:47.000Z,942.9
2017-07-04T01:02:15.225Z,942.88
2017-07-04T01:02:43.325Z,942.89
2017-07-04T01:03:11.456Z,942.82
2017-07-04T01:03:39.805Z,942.84
2017-07-04T01:04:07.851Z,942.89
2017-07-04T01:04:35.955Z,942.87
2017-07-04T01:05:04.181Z,942.84
2017-07-04T01:05:32.431Z,942.9
2017-07-04T01:06:00.683Z,942.79
2017-07-04T01:06:28.641Z,942.83
2017-07-04T01:06:56.838Z,942.83
2017-07-04T01:07:24.751Z,942.84
2017-07-04T01:07:52.890Z,942.82
2017-07-04T01:08:21.009Z,942.82
2017-07-04T01:08:49.118Z,942.84
2017-07-04T01:09:17.158Z,942.81
2017-07-04T01:09:45.426Z,942.86
2017-07-04T01:10:13.627Z,942.86
2017-07-04T01:10:41.597Z,942.82
2017-07-04T01:11:09.739Z,942.85
2017-07-04T01:11:37.826Z,942.85
2017-07-04T01:12:06.111Z,942.83
2017-07-04T01:12:34.238Z,942.87
2017-07-04T01:13:02.297Z,942.85
2017-07-04T01:13:30.565Z,942.91
2017-07-04T01:13:58.917Z,942.86
2017-07-04T01:14:27.028Z,942.88
2017-07-04T01:14:55.157Z,942.91
2017-07-04T01:15:23.292Z,942.9
2017-07-04T01:15:51.472Z,942.92
2017-07-04T01:16:19.712Z,942.93
2017-07-04T01:16:47.869Z,942.89
2017-07-04T01:17:15.966Z,942.85
2017-07-04T01:17:44.041Z,942.98
2017-07-04T01:18:12.270Z,942.91
2017-07-04T01:18:40.357Z,942.9
2017-07-04T01:19:08.706Z,942.9
2017-07-04T01:19:36.740Z,942.99
2017-07-04T01:20:04.996Z,942.89
2017-07-04T01:20:33.065Z,942.95
2017-07-04T01:21:01.095Z,942.96
2017-07-04T01:21:29.187Z,942.89
2017-07-04T01:21:57.291Z,942.89
2017-07-04T01:22:25.410Z,942.89
2017-07-04T01:22:53.558Z,942.92
2017-07-04T01:23:21.689Z,942.92
2017-07-04T01:23:50.039Z,942.9
2017-07-04T01:24:18.186Z,942.93
2017-07-04T01:24:46.365Z,942.91
2017-07-04T01:25:14.491Z,942.89
2017-07-04T01:25:42.712Z,942.88
2017-07-04T01:26:10.819Z,942.89
2017-07-04T01:26:39.045Z,942.91
2017-07-04T01:27:07.271Z,942.94
2017-07-04T01:27:35.469Z,942.98
2017-07-04T01:28:03.637Z,942.93
2017-07-04T01:28:31.869Z,942.91
2017-07-04T01:29:00.079Z,942.99
2017-07-04T01:29:28.306Z,942.96
2017-07-04T01:29:56.296Z,942.96
2017-07-04T01:30:24.443Z,942.98
2017-07-04T01:30:52.561Z,942.95
2017-07-04T01:31:20.765Z,943
2017-07-04T01:31:48.829Z,943.01
2017-07-04T01:32:17.035Z,943.02
2017-07-04T01:32:45.052Z,943
2017-07-04T01:33:13.176Z,942.98
2017-07-04T01:33:41.328Z,942.98
2017-07-04T01:34:09.661Z,943.03
2017-07-04T01:34:37.919Z,943.02
2017-07-04T01:35:06.110Z,943
2017-07-04T01:35:34.171Z,943.01
2017-07-04T01:36:02.334Z,942.99
2017-07-04T01:36:30.456Z,943.04
2017-07-04T01:36:58.666Z,943.06
2017-07-04T01:37:26.872Z,943.08
2017-07-04T01:37:55.101Z,943.1
2017-07-04T01:38:23.308Z,943.08
2017-07-04T01:38:51.457Z,943.12
2017-07-04T01:39:19.762Z,943.05
2017-07-04T01:39:48.001Z,943.08
2017-07-04T01:40:16.129Z,943.1
2017-07-04T01:40:44.335Z,943.04
2017-07-04T01:41:12.254Z,943.07
2017-07-04T01:41:40.489Z,942.97
2017-07-04T01:42:08.634Z,943.14
2017-07-04T01:42:36.467Z,943.13
2017-07-04T01:43:04.536Z,943.05
2017-07-04T01:43:32.695Z,943.07
2017-07-04T01:44:00.907Z,943.12
2017-07-04T01:44:29.301Z,943.08
2017-07-04T01:44:57.553Z,943.07
2017-07-04T01:45:25.567Z,943.03
2017-07-04T01:45:53.704Z,943.05
2017-07-04T01:46:21.908Z,943.04
2017-07-04T01:46:50.155Z,943.04
2017-07-04T01:47:18.114Z,943.09
2017-07-04T01:47:46.019Z,943.08
2017-07-04T01:48:14.213Z,943.05
2017-07-04T01:48:42.349Z,943.09
2017-07-04T01:49:10.646Z,943.07
2017-07-04T01:49:38.809Z,943.08
2017-07-04T01:50:06.799Z,943.06
2017-07-04T01:50:35.055Z,943.04
2017-07-04T01:51:03.205Z,943.04
2017-07-04T01:51:31.168Z,943.06
2017-07-04T01:51:59.410Z,943.01
2017-07-04T01:52:27.583Z,943.09
2017-07-04T01:52:55.738Z,943.04
2017-07-04T01:53:23.952Z,943.02
2017-07-04T01:53:51.954Z,943.04
2017-07-04T01:54:20.181Z,943.06
2017-07-04T01:54:48.205Z,943.05
2017-07-04T01:55:16.233Z,943.04
2017-07-04T01:55:44.494Z,943.05
2017-07-04T01:56:12.725Z,942.99
2017-07-04T01:56:40.990Z,943.05
2017-07-04T01:57:09.133Z,943.01
2017-07-04T01:57:37.368Z,943.01
2017-07-04T01:58:05.610Z,943.01
2017-07-04T01:58:33.654Z,943.01
2017-07-04T01:59:01.846Z,943
2017-07-04T01:59:30.190Z,942.98
2017-07-04T01:59:58.326Z,942.95
2017-07-04T02:00:26.448Z,942.99
2017-07-04T02:00:54.606Z,942.97
2017-07-04T02:01:22.816Z,942.99
2017-07-04T02:01:51.037Z,942.97
2017-07-04T02:02:19.254Z,942.94
2017-07-04T02:02:47.528Z,942.95
2017-07-04T02:03:15.772Z,942.91
2017-07-04T02:03:44.005Z,942.92
2017-07-04T02:04:12.247Z,942.95
2017-07-04T02:04:40.459Z,942.93
2017-07-04T02:05:08.495Z,942.94
2017-07-04T02:05:36.707Z,942.93
2017-07-04T02:06:04.914Z,942.93
2017-07-04T02:06:33.020Z,942.9
2017-07-04T02:07:01.137Z,942.9
2017-07-04T02:07:29.239Z,942.93
2017-07-04T02:07:57.493Z,942.88
2017-07-04T02:08:25.686Z,942.85
2017-07-04T02:08:53.844Z,942.83
2017-07-04T02:09:21.960Z,942.95
2017-07-04T02:09:50.079Z,942.95
2017-07-04T02:10:18.362Z,942.95
2017-07-04T02:10:46.544Z,943.01
2017-07-04T02:11:14.650Z,943.01
2017-07-04T02:11:42.871Z,943.02
2017-07-04T02:12:10.994Z,943.05
2017-07-04T02:12:39.232Z,943.03
2017-07-04T02:13:07.402Z,943.03
2017-07-04T02:13:35.608Z,943.04
2017-07-04T02:14:03.877Z,943.02
2017-07-04T02:14:32.240Z,943.05
2017-07-04T02:15:00.385Z,943.07
2017-07-04T02:15:28.430Z,943.06
2017-07-04T02:15:56.531Z,943.04
2017-07-04T02:16:24.812Z,943.04
2017-07-04T02:16:52.909Z,943.08
2017-07-04T02:17:21.145Z,943.02
2017-07-04T02:17:49.389Z,943.03
2017-07-04T02:18:17.684Z,943.06
2017-07-04T02:18:45.815Z,943.08
2017-07-04T02:19:14.029Z,943.03
2017-07-04T02:19:42.328Z,943.07
2017-07-04T02:20:10.441Z,943.07
2017-07-04T02:20:38.670Z,943.08
2017-07-04T02:21:06.900Z,943.05
2017-07-04T02:21:35.205Z,943.06
2017-07-04T02:22:03.310Z,943.05
2017-07-04T02:22:31.561Z,943.06
2017-07-04T02:22:59.587Z,943.11
2017-07-04T02:23:27.743Z,943.08
2017-07-04T02:23:55.813Z,943.08
2017-07-04T02:24:24.073Z,943.1
2017-07-04T02:24:52.396Z,943.1
2017-07-04T02:25:20.522Z,943.11
2017-07-04T02:25:48.746Z,943.11
2017-07-04T02:26:16.777Z,943.13
2017-07-04T02:26:44.820Z,943.12
2017-07-04T02:27:12.920Z,943.14
2017-07-04T02:27:41.049Z,943.1
2017-07-04T02:28:09.148Z,943.07
2017-07-04T02:28:37.232Z,943.12
2017-07-04T02:29:05.383Z,943.14
2017-07-04T02:29:33.609Z,943.09
2017-07-04T02:30:01.912Z,943.11
2017-07-04T02:30:30.061Z,943.14
2017-07-04T02:30:58.327Z,943.13
2017-07-04T02:31:26.563Z,943.14
2017-07-04T02:31:54.593Z,943.13
2017-07-04T02:32:22.790Z,943.15
2017-07-04T02:32:50.911Z,943.2
2017-07-04T02:33:18.922Z,943.18
2017-07-04T02:33:47.059Z,943.17
2017-07-04T02:34:15.006Z,943.14
2017-07-04T02:34:43.219Z,943.15
2017-07-04T02:35:11.399Z,943.12
2017-07-04T02:35:39.564Z,943.17
2017-07-04T02:36:07.701Z,943.16
2017-07-04T02:36:35.900Z,943.18
2017-07-04T02:37:04.062Z,943.16
2017-07-04T02:37:32.050Z,943.11
2017-07-04T02:38:00.259Z,943.12
2017-07-04T02:38:28.352Z,943.12
2017-07-04T02:38:56.469Z,943.08
2017-07-04T02:39:24.691Z,943.15
2017-07-04T02:39:53.061Z,943.1
2017-07-04T02:40:21.221Z,943.14
2017-07-04T02:40:49.367Z,943.03
2017-07-04T02:41:17.665Z,943.06
2017-07-04T02:41:45.874Z,943.1
2017-07-04T02:42:14.128Z,943.05
2017-07-04T02:42:42.409Z,943.03
2017-07-04T02:43:10.595Z,943.01
2017-07-04T02:43:38.586Z,943.02
2017-07-04T02:44:06.497Z,942.98
2017-07-04T02:44:34.572Z,942.96
2017-07-04T02:45:02.878Z,942.98
2017-07-04T02:45:31.133Z,943
2017-07-04T02:45:59.283Z,942.96
2017-07-04T02:46:27.461Z,942.93
2017-07-04T02:46:55.702Z,942.95
2017-07-04T02:47:23.935Z,942.95
2017-07-04T02:47:52.144Z,942.94
2017-07-04T02:48:20.390Z,942.95
2017-07-04T02:48:48.519Z,942.98
2017-07-04T02:49:16.627Z,942.96
2017-07-04T02:49:44.645Z,942.98
2017-07-04T02:50:12.897Z,942.99
2017-07-04T02:50:41.151Z,942.96
2017-07-04T02:51:09.400Z,942.94
2017-07-04T02:51:37.712Z,942.97
2017-07-04T02:52:05.665Z,942.95
2017-07-04T02:52:33.809Z,942.95
2017-07-04T02:53:02.001Z,942.95
2017-07-04T02:53:30.011Z,942.96
2017-07-04T02:53:58.156Z,942.93
2017-07-04T02:54:26.266Z,942.96
2017-07-04T02:54:54.383Z,943
2017-07-04T02:55:22.587Z,942.95
2017-07-04T02:55:50.596Z,942.95
2017-07-04T02:56:18.863Z,942.94
2017-07-04T02:56:47.124Z,942.96
2017-07-04T02:57:15.269Z,942.94
2017-07-04T02:57:43.332Z,942.94
2017-07-04T02:58:11.349Z,942.92
2017-07-04T02:58:39.494Z,942.94
2017-07-04T02:59:07.750Z,942.96
2017-07-04T02:59:35.988Z,942.95
2017-07-04T03:00:04.298Z,942.93
2017-07-04T03:00:32.662Z,942.92
2017-07-04T03:01:00.891Z,942.95
2017-07-04T03:01:29.106Z,942.91
2017-07-04T03:01:57.233Z,942.92
2017-07-04T03:02:25.342Z,942.91
2017-07-04T03:02:53.587Z,942.93
2017-07-04T03:03:21.606Z,942.9
2017-07-04T03:03:49.855Z,942.93
2017-07-04T03:04:17.769Z,942.93
2017-07-04T03:04:45.884Z,942.9
2017-07-04T03:05:14.100Z,942.94
2017-07-04T03:05:42.232Z,942.92
2017-07-04T03:06:10.444Z,942.94
2017-07-04T03:06:38.619Z,942.95
2017-07-04T03:07:06.655Z,942.93
2017-07-04T03:07:34.885Z,942.94
2017-07-04T03:08:03.140Z,942.92
2017-07-04T03:08:31.355Z,942.95
2017-07-04T03:08:59.577Z,942.94
2017-07-04T03:09:27.701Z,942.92
2017-07-04T03:09:55.926Z,942.95
2017-07-04T03:10:24.060Z,942.93
2017-07-04T03:10:52.165Z,942.95
2017-07-04T03:11:20.080Z,942.93
2017-07-04T03:11:48.125Z,942.92
2017-07-04T03:12:16.171Z,942.9
2017-07-04T03:12:44.421Z,942.93
2017-07-04T03:13:12.568Z,942.95
2017-07-04T03:13:40.764Z,942.99
2017-07-04T03:14:08.888Z,942.95
2017-07-04T03:14:37.141Z,942.92
2017-07-04T03:15:05.148Z,942.98
2017-07-04T03:15:33.232Z,942.97
2017-07-04T03:16:01.367Z,942.94
2017-07-04T03:16:29.578Z,942.97
2017-07-04T03:16:57.832Z,942.97
2017-07-04T03:17:25.943Z,942.98
2017-07-04T03:17:54.012Z,942.98
2017-07-04T03:18:22.242Z,942.92
2017-07-04T03:18:50.346Z,942.97
2017-07-04T03:19:18.364Z,942.94
2017-07-04T03:19:46.475Z,942.96
2017-07-04T03:20:14.601Z,942.99
2017-07-04T03:20:42.752Z,942.94
2017-07-04T03:21:10.705Z,942.92
2017-07-04T03:21:38.906Z,942.94
2017-07-04T03:22:06.905Z,942.92
2017-07-04T03:22:35.040Z,942.94
2017-07-04T03:23:03.041Z,942.92
2017-07-04T03:23:31.044Z,942.91
2017-07-04T03:23:59.248Z,942.93
2017-07-04T03:24:27.192Z,942.86
2017-07-04T03:24:55.286Z,942.91
2017-07-04T03:25:23.426Z,942.87
2017-07-04T03:25:51.753Z,942.91
2017-07-04T03:26:19.808Z,942.88
2017-07-04T03:26:47.724Z,942.89
2017-07-04T03:27:15.865Z,942.86
2017-07-04T03:27:44.090Z,942.84
2017-07-04T03:28:12.218Z,942.9
2017-07-04T03:28:40.492Z,942.86
2017-07-04T03:29:08.661Z,942.86
2017-07-04T03:29:36.582Z,942.85
2017-07-04T03:30:04.666Z,942.87
2017-07-04T03:30:33.011Z,942.86
2017-07-04T03:31:01.214Z,942.87
2017-07-04T03:31:29.323Z,942.89
2017-07-04T03:31:57.596Z,942.87
2017-07-04T03:32:25.834Z,942.89
2017-07-04T03:32:54.067Z,942.87
2017-07-04T03:33:22.096Z,942.87
2017-07-04T03:33:50.162Z,942.86
2017-07-04T03:34:18.270Z,942.88
2017-07-04T03:34:46.424Z,942.88
2017-07-04T03:35:14.641Z,942.87
2017-07-04T03:35:42.957Z,942.87
2017-07-04T03:36:11.062Z,942.87
2017-07-04T03:36:39.278Z,942.9
2017-07-04T03:37:07.414Z,942.83
2017-07-04T03:37:35.566Z,942.87
2017-07-04T03:38:03.686Z,942.85
2017-07-04T03:38:31.705Z,942.85
2017-07-04T03:38:59.891Z,942.86
2017-07-04T03:39:28.126Z,942.88
2017-07-04T03:39:56.237Z,942.88
2017-07-04T03:40:24.458Z,942.87
2017-07-04T03:40:52.717Z,942.87
2017-07-04T03:41:20.867Z,942.85
2017-07-04T03:41:49.096Z,942.82
2017-07-04T03:42:17.348Z,942.82
2017-07-04T03:42:45.495Z,942.83
2017-07-04T03:43:13.674Z,942.83
2017-07-04T03:43:41.826Z,942.83
2017-07-04T03:44:09.831Z,942.82
2017-07-04T03:44:37.929Z,942.81
2017-07-04T03:45:06.034Z,942.79
2017-07-04T03:45:33.850Z,942.76
2017-07-04T03:46:02.059Z,942.86
2017-07-04T03:46:30.187Z,942.91
2017-07-04T03:46:58.470Z,942.9
2017-07-04T03:47:26.469Z,942.86
2017-07-04T03:47:54.680Z,942.89
2017-07-04T03:48:22.908Z,942.88
2017-07-04T03:48:50.986Z,942.9
2017-07-04T03:49:19.115Z,942.89
2017-07-04T03:49:47.284Z,942.88
2017-07-04T03:50:15.525Z,942.84
2017-07-04T03:50:43.651Z,942.86
2017-07-04T03:51:11.813Z,942.87
2017-07-04T03:51:39.947Z,942.87
2017-07-04T03:52:07.987Z,942.83
2017-07-04T03:52:36.263Z,942.86
2017-07-04T03:53:04.295Z,942.84
2017-07-04T03:53:32.416Z,942.83
2017-07-04T03:54:00.351Z,942.79
2017-07-04T03:54:28.427Z,942.78
2017-07-04T03:54:56.548Z,942.76
2017-07-04T03:55:24.757Z,942.77
2017-07-04T03:55:53.120Z,942.8
2017-07-04T03:56:21.210Z,942.79
2017-07-04T03:56:49.416Z,942.79
2017-07-04T03:57:17.534Z,942.76
2017-07-04T03:57:45.682Z,942.74
2017-07-04T03:58:13.879Z,942.72
2017-07-04T03:58:42.105Z,942.76
2017-07-04T03:59:10.360Z,942.77
2017-07-04T03:59:38.544Z,942.79
2017-07-04T04:00:06.700Z,942.77
2017-07-04T04:00:34.727Z,942.73
2017-07-04T04:01:02.955Z,942.77
2017-07-04T04:01:31.186Z,942.73
2017-07-04T04:01:59.344Z,942.75
2017-07-04T04:02:27.457Z,942.77
2017-07-04T04:02:55.698Z,942.76
2017-07-04T04:03:23.774Z,942.69
2017-07-04T04:03:51.982Z,942.62
2017-07-04T04:04:20.233Z,942.65
2017-07-04T04:04:48.414Z,942.68
2017-07-04T04:05:16.425Z,942.68
2017-07-04T04:05:44.527Z,942.65
2017-07-04T04:06:12.851Z,942.64
2017-07-04T04:06:41.053Z,942.61
2017-07-04T04:07:09.291Z,942.61
2017-07-04T04:07:37.423Z,942.62
2017-07-04T04:08:05.637Z,942.59
2017-07-04T04:08:33.823Z,942.66
2017-07-04T04:09:01.834Z,942.58
2017-07-04T04:09:29.843Z,942.59
2017-07-04T04:09:57.845Z,942.59
2017-07-04T04:10:25.742Z,942.63
2017-07-04T04:10:53.864Z,942.63
2017-07-04T04:11:22.357Z,942.62
2017-07-04T04:11:50.470Z,942.6
2017-07-04T04:12:18.693Z,942.68
2017-07-04T04:12:46.831Z,942.62
2017-07-04T04:13:14.925Z,942.61
2017-07-04T04:13:42.831Z,942.66
2017-07-04T04:14:11.064Z,942.64
2017-07-04T04:14:39.187Z,942.65
2017-07-04T04:15:07.384Z,942.61
2017-07-04T04:15:35.503Z,942.67
2017-07-04T04:16:03.746Z,942.65
2017-07-04T04:16:31.733Z,942.63
2017-07-04T04:16:59.800Z,942.62
2017-07-04T04:17:27.921Z,942.62
2017-07-04T04:17:56.116Z,942.65
2017-07-04T04:18:24.344Z,942.6
2017-07-04T04:18:52.475Z,942.63
2017-07-04T04:19:20.678Z,942.61
2017-07-04T04:19:48.789Z,942.6
2017-07-04T04:20:16.918Z,942.54
2017-07-04T04:20:45.038Z,942.55
2017-07-04T04:21:13.189Z,942.59
2017-07-04T04:21:41.360Z,942.56
2017-07-04T04:22:09.589Z,942.55
2017-07-04T04:22:37.807Z,942.56
2017-07-04T04:23:05.920Z,942.54
2017-07-04T04:23:34.140Z,942.52
2017-07-04T04:24:02.406Z,942.55
2017-07-04T04:24:30.395Z,942.51
2017-07-04T04:24:58.611Z,942.5
2017-07-04T04:25:26.871Z,942.52
2017-07-04T04:25:55.126Z,942.51
2017-07-04T04:26:23.367Z,942.52
2017-07-04T04:26:51.544Z,942.47
2017-07-04T04:27:19.582Z,942.49
2017-07-04T04:27:47.717Z,942.52
2017-07-04T04:28:15.803Z,942.53
2017-07-04T04:28:44.016Z,942.51
2017-07-04T04:29:12.148Z,942.51
2017-07-04T04:29:40.298Z,942.55
2017-07-04T04:30:08.517Z,942.53
2017-07-04T04:30:36.623Z,942.52
2017-07-04T04:31:04.761Z,942.56
2017-07-04T04:31:33.052Z,942.55
2017-07-04T04:32:01.185Z,942.52
2017-07-04T04:32:29.365Z,942.48
2017-07-04T04:32:57.485Z,942.55
2017-07-04T04:33:25.547Z,942.51
2017-07-04T04:33:53.596Z,942.51
2017-07-04T04:34:21.794Z,942.51
2017-07-04T04:34:49.812Z,942.51
2017-07-04T04:35:17.907Z,942.54
2017-07-04T04:35:45.969Z,942.55
2017-07-04T04:36:14.258Z,942.53
2017-07-04T04:36:42.456Z,942.54
2017-07-04T04:37:10.553Z,942.51
2017-07-04T04:37:38.747Z,942.5
2017-07-04T04:38:07.041Z,942.53
2017-07-04T04:38:35.188Z,942.5
2017-07-04T04:39:03.442Z,942.52
2017-07-04T04:39:31.508Z,942.5
2017-07-04T04:39:59.622Z,942.52
2017-07-04T04:40:27.812Z,942.45
2017-07-04T04:40:56.059Z,942.45
2017-07-04T04:41:24.100Z,942.43
2017-07-04T04:41:52.350Z,942.39
2017-07-04T04:42:20.255Z,942.41
2017-07-04T04:42:48.391Z,942.48
2017-07-04T04:43:16.670Z,942.44
2017-07-04T04:43:44.786Z,942.47
2017-07-04T04:44:13.010Z,942.45
2017-07-04T04:44:41.215Z,942.49
2017-07-04T04:45:09.367Z,942.44
2017-07-04T04:45:37.540Z,942.44
2017-07-04T04:46:05.663Z,942.48
2017-07-04T04:46:33.803Z,942.43
2017-07-04T04:47:02.077Z,942.46
2017-07-04T04:47:30.198Z,942.45
2017-07-04T04:47:58.348Z,942.46
2017-07-04T04:48:26.620Z,942.44
2017-07-04T04:48:54.682Z,942.46
2017-07-04T04:49:22.889Z,942.44
2017-07-04T04:49:51.002Z,942.46
2017-07-04T04:50:19.257Z,942.47
2017-07-04T04:50:47.497Z,942.44
2017-07-04T04:51:15.528Z,942.46
2017-07-04T04:51:43.995Z,942.42
2017-07-04T04:52:12.259Z,942.41
2017-07-04T04:52:40.191Z,942.44
2017-07-04T04:53:08.327Z,942.4
2017-07-04T04:53:36.564Z,942.39
2017-07-04T04:54:04.791Z,942.39
2017-07-04T04:54:32.987Z,942.37
2017-07-04T04:55:01.207Z,942.36
2017-07-04T04:55:29.334Z,942.37
2017-07-04T04:55:57.461Z,942.42
2017-07-04T04:56:25.670Z,942.38
2017-07-04T04:56:53.982Z,942.39
2017-07-04T04:57:22.163Z,942.38
2017-07-04T04:57:50.306Z,942.42
2017-07-04T04:58:18.436Z,942.41
2017-07-04T04:58:46.659Z,942.41
2017-07-04T04:59:14.797Z,942.47
2017-07-04T04:59:42.812Z,942.44
2017-07-04T05:00:10.932Z,942.44
2017-07-04T05:00:39.089Z,942.47
2017-07-04T05:01:07.189Z,942.42
2017-07-04T05:01:35.243Z,942.46
2017-07-04T05:02:03.838Z,942.44
2017-07-04T05:02:31.964Z,942.42
2017-07-04T05:03:00.052Z,942.43
2017-07-04T05:03:28.186Z,942.44
2017-07-04T05:03:56.401Z,942.4
2017-07-04T05:04:24.636Z,942.41
2017-07-04T05:04:52.632Z,942.4
2017-07-04T05:05:20.769Z,942.34
2017-07-04T05:05:48.967Z,942.35
2017-07-04T05:06:17.139Z,942.38
2017-07-04T05:06:45.377Z,942.4
2017-07-04T05:07:13.456Z,942.4
2017-07-04T05:07:41.571Z,942.42
2017-07-04T05:08:09.716Z,942.43
2017-07-04T05:08:37.910Z,942.39
2017-07-04T05:09:05.904Z,942.44
2017-07-04T05:09:34.149Z,942.44
2017-07-04T05:10:02.474Z,942.4
2017-07-04T05:10:31.043Z,942.42
2017-07-04T05:10:59.232Z,942.41
2017-07-04T05:11:27.452Z,942.38
2017-07-04T05:11:55.792Z,942.43
2017-07-04T05:12:23.950Z,942.4
2017-07-04T05:12:52.107Z,942.39
2017-07-04T05:13:20.206Z,942.39
2017-07-04T05:13:48.478Z,942.38
2017-07-04T05:14:16.686Z,942.35
2017-07-04T05:14:44.754Z,942.36
2017-07-04T05:15:12.822Z,942.34
2017-07-04T05:15:40.959Z,942.36
2017-07-04T05:16:08.954Z,942.33
2017-07-04T05:16:37.191Z,942.37
2017-07-04T05:17:05.483Z,942.33
2017-07-04T05:17:33.766Z,942.32
2017-07-04T05:18:01.999Z,942.29
2017-07-04T05:18:30.036Z,942.34
2017-07-04T05:18:58.236Z,942.29
2017-07-04T05:19:26.505Z,942.28
2017-07-04T05:19:54.581Z,942.23
2017-07-04T05:20:22.610Z,942.24
2017-07-04T05:20:50.729Z,942.27
2017-07-04T05:21:18.898Z,942.25
2017-07-04T05:21:47.171Z,942.24
2017-07-04T05:22:15.430Z,942.22
2017-07-04T05:22:43.551Z,942.2
2017-07-04T05:23:11.687Z,942.22
2017-07-04T05:23:39.961Z,942.22
2017-07-04T05:24:08.187Z,942.23
2017-07-04T05:24:36.453Z,942.28
2017-07-04T05:25:04.718Z,942.28
2017-07-04T05:25:32.862Z,942.26
2017-07-04T05:26:00.974Z,942.24
2017-07-04T05:26:28.979Z,942.27
2017-07-04T05:26:57.063Z,942.27
2017-07-04T05:27:25.164Z,942.25
2017-07-04T05:27:53.278Z,942.24
2017-07-04T05:28:21.452Z,942.25
2017-07-04T05:28:49.481Z,942.23
2017-07-04T05:29:17.568Z,942.29
2017-07-04T05:29:45.826Z,942.25
2017-07-04T05:30:14.009Z,942.28
2017-07-04T05:30:42.119Z,942.3
2017-07-04T05:31:10.214Z,942.3
2017-07-04T05:31:38.493Z,942.27
2017-07-04T05:32:06.740Z,942.31
2017-07-04T05:32:35.084Z,942.35
2017-07-04T05:33:03.303Z,942.3
2017-07-04T05:33:31.455Z,942.33
2017-07-04T05:33:59.465Z,942.32
2017-07-04T05:34:27.692Z,942.32
2017-07-04T05:34:55.860Z,942.29
2017-07-04T05:35:23.972Z,942.34
2017-07-04T05:35:52.180Z,942.36
2017-07-04T05:36:20.047Z,942.33
2017-07-04T05:36:48.105Z,942.31
2017-07-04T05:37:16.470Z,942.34
2017-07-04T05:37:44.738Z,942.38
2017-07-04T05:38:12.920Z,942.37
2017-07-04T05:38:41.068Z,942.36
2017-07-04T05:39:09.342Z,942.35
2017-07-04T05:39:37.593Z,942.33
2017-07-04T05:40:05.606Z,942.37
2017-07-04T05:40:33.839Z,942.34
2017-07-04T05:41:02.185Z,942.34
2017-07-04T05:41:30.422Z,942.34
2017-07-04T05:41:58.547Z,942.37
2017-07-04T05:42:26.716Z,942.39
2017-07-04T05:42:54.668Z,942.39
2017-07-04T05:43:22.909Z,942.34
2017-07-04T05:43:51.180Z,942.31
2017-07-04T05:44:19.339Z,942.28
2017-07-04T05:44:47.649Z,942.31
2017-07-04T05:45:15.763Z,942.29
2017-07-04T05:45:44.025Z,942.32
2017-07-04T05:46:12.219Z,942.32
2017-07-04T05:46:40.478Z,942.33
2017-07-04T05:47:08.368Z,942.3
2017-07-04T05:47:36.410Z,942.29
2017-07-04T05:48:04.455Z,942.28
2017-07-04T05:48:32.626Z,942.29
2017-07-04T05:49:00.864Z,942.3
2017-07-04T05:49:28.978Z,942.32
2017-07-04T05:49:57.355Z,942.27
2017-07-04T05:50:25.608Z,942.29
2017-07-04T05:50:53.836Z,942.24
2017-07-04T05:51:21.860Z,942.29
2017-07-04T05:51:50.021Z,942.29
2017-07-04T05:52:18.262Z,942.25